createdAt,value
2022-11-22T00:01:25.417Z,38.04
2022-11-22T00:03:53.651Z,37.81
2022-11-22T00:06:21.678Z,37.81
2022-11-22T00:08:51.430Z,37.56
2022-11-22T00:11:19.631Z,37.71
2022-11-22T00:13:47.962Z,37.84
2022-11-22T00:16:16.244Z,37.68
2022-11-22T00:18:44.547Z,37.89
2022-11-22T00:21:12.611Z,37.77
2022-11-22T00:23:40.950Z,37.88
2022-11-22T00:26:12.369Z,37.70
2022-11-22T00:28:40.992Z,37.90
2022-11-22T00:31:08.961Z,37.56
2022-11-22T00:33:37.264Z,37.86
2022-11-22T00:36:05.838Z,37.83
2022-11-22T00:38:34.246Z,37.87
2022-11-22T00:41:02.433Z,37.99
2022-11-22T00:43:32.607Z,37.65
2022-11-22T00:46:00.840Z,37.40
2022-11-22T00:48:29.581Z,37.31
2022-11-22T00:50:57.606Z,37.37
2022-11-22T00:53:26.025Z,37.64
2022-11-22T00:55:54.159Z,37.28
2022-11-22T00:58:22.488Z,37.57
2022-11-22T01:00:56.577Z,37.42
2022-11-22T01:03:25.285Z,37.85
2022-11-22T01:05:53.305Z,37.78
2022-11-22T01:08:21.698Z,37.70
2022-11-22T01:10:49.767Z,37.75
2022-11-22T01:13:18.128Z,37.70
2022-11-22T01:15:46.240Z,37.81
2022-11-22T01:18:16.143Z,37.64
2022-11-22T01:20:44.188Z,37.84
2022-11-22T01:23:12.625Z,38.10
2022-11-22T01:25:43.865Z,37.82
2022-11-22T01:28:12.449Z,38.22
2022-11-22T01:30:42.018Z,38.57
2022-11-22T01:33:10.750Z,38.52
2022-11-22T01:35:40.102Z,38.42
2022-11-22T01:38:08.603Z,38.54
2022-11-22T01:40:36.901Z,38.31
2022-11-22T01:43:18.159Z,38.31
2022-11-22T01:45:52.021Z,38.35
2022-11-22T01:48:36.856Z,38.04
2022-11-22T01:51:08.750Z,38.39
2022-11-22T01:53:38.858Z,38.61
2022-11-22T01:56:10.284Z,38.47
2022-11-22T01:58:39.148Z,38.86
2022-11-22T02:01:07.981Z,38.91
2022-11-22T02:03:38.857Z,38.70
2022-11-22T02:06:08.827Z,38.70
2022-11-22T02:08:41.613Z,39.51
2022-11-22T02:11:10.925Z,39.52
2022-11-22T02:13:42.047Z,39.60
2022-11-22T02:16:10.879Z,39.47
2022-11-22T02:18:39.682Z,39.55
2022-11-22T02:21:09.240Z,39.08
2022-11-22T02:23:47.227Z,38.77
2022-11-22T02:26:16.656Z,39.34
2022-11-22T02:28:45.125Z,40.08
2022-11-22T02:31:34.746Z,39.31
2022-11-22T02:34:03.398Z,40.47
2022-11-22T02:36:34.828Z,40.03
2022-11-22T02:39:03.437Z,40.08
2022-11-22T02:41:33.278Z,39.77
2022-11-22T02:44:01.685Z,39.55
2022-11-22T02:46:29.675Z,39.82
2022-11-22T02:48:58.034Z,39.98
2022-11-22T02:51:26.619Z,39.97
2022-11-22T02:53:56.903Z,40.30
2022-11-22T02:56:25.004Z,40.31
2022-11-22T02:58:54.757Z,40.02
2022-11-22T03:01:22.823Z,39.91
2022-11-22T03:03:51.172Z,40.08
2022-11-22T03:06:19.386Z,39.95
2022-11-22T03:08:53.149Z,39.59
2022-11-22T03:11:24.253Z,39.96
2022-11-22T03:13:54.069Z,39.72
2022-11-22T03:16:22.278Z,39.78
2022-11-22T03:18:50.669Z,39.85
2022-11-22T03:21:18.752Z,39.74
2022-11-22T03:23:47.074Z,39.66
2022-11-22T03:26:15.183Z,39.67
2022-11-22T03:28:43.427Z,39.93
2022-11-22T03:31:12.870Z,39.67
2022-11-22T03:33:41.216Z,39.76
2022-11-22T03:36:09.238Z,39.88
2022-11-22T03:38:37.643Z,39.96
2022-11-22T03:41:05.961Z,40.05
2022-11-22T03:43:34.482Z,40.04
2022-11-22T03:46:02.553Z,40.37
2022-11-22T03:48:32.533Z,40.62
2022-11-22T03:51:05.582Z,40.53
2022-11-22T03:53:34.627Z,40.40
2022-11-22T03:56:02.862Z,40.31
2022-11-22T03:58:31.222Z,40.16
2022-11-22T04:00:59.604Z,40.30
2022-11-22T04:03:28.088Z,40.60
2022-11-22T04:05:57.675Z,40.33
2022-11-22T04:08:26.159Z,40.12
2022-11-22T04:10:54.319Z,40.58
2022-11-22T04:13:42.857Z,41.04
2022-11-22T04:16:09.973Z,40.99
2022-11-22T04:18:38.377Z,40.78
2022-11-22T04:21:25.112Z,40.55
2022-11-22T04:24:07.632Z,40.77
2022-11-22T04:26:35.721Z,40.27
2022-11-22T04:29:11.323Z,40.12
2022-11-22T04:31:57.091Z,40.47
2022-11-22T04:34:25.368Z,40.53
2022-11-22T04:36:54.929Z,40.76
2022-11-22T04:39:23.345Z,40.63
2022-11-22T04:42:13.841Z,40.23
2022-11-22T04:44:41.905Z,40.26
2022-11-22T04:47:10.372Z,40.58
2022-11-22T04:49:39.034Z,40.84
2022-11-22T04:52:25.950Z,40.89
2022-11-22T04:54:54.238Z,41.21
2022-11-22T04:57:22.449Z,41.07
2022-11-22T04:59:50.895Z,40.97
2022-11-22T05:02:18.923Z,40.61
2022-11-22T05:04:50.655Z,40.47
2022-11-22T05:07:20.489Z,40.61
2022-11-22T05:09:48.861Z,41.02
2022-11-22T05:12:16.963Z,40.35
2022-11-22T05:14:45.335Z,40.32
2022-11-22T05:17:13.880Z,40.03
2022-11-22T05:19:47.819Z,40.89
2022-11-22T05:22:17.791Z,40.93
2022-11-22T05:24:46.673Z,40.75
2022-11-22T05:27:14.720Z,41.21
2022-11-22T05:29:43.167Z,40.92
2022-11-22T05:32:11.272Z,40.88
2022-11-22T05:34:39.708Z,41.95
2022-11-22T05:37:07.843Z,41.54
2022-11-22T05:39:36.433Z,41.96
2022-11-22T05:42:06.063Z,41.52
2022-11-22T05:44:34.480Z,41.86
2022-11-22T05:47:02.449Z,41.76
2022-11-22T05:49:31.168Z,42.39
2022-11-22T05:51:59.555Z,42.25
2022-11-22T05:54:28.042Z,41.58
2022-11-22T05:56:56.075Z,42.04
2022-11-22T05:59:25.885Z,41.46
2022-11-22T06:01:53.975Z,41.63
2022-11-22T06:04:22.551Z,41.25
2022-11-22T06:06:50.612Z,41.51
2022-11-22T06:09:19.001Z,41.46
2022-11-22T06:11:48.362Z,41.42
2022-11-22T06:14:16.660Z,41.33
2022-11-22T06:16:46.053Z,41.53
2022-11-22T06:19:14.417Z,41.04
2022-11-22T06:21:42.597Z,41.80
2022-11-22T06:24:11.425Z,41.09
2022-11-22T06:26:39.833Z,40.46
2022-11-22T06:29:08.266Z,40.48
2022-11-22T06:31:37.147Z,40.79
2022-11-22T06:34:06.952Z,40.60
2022-11-22T06:36:36.450Z,40.33
2022-11-22T06:39:05.491Z,40.25
2022-11-22T06:41:35.036Z,40.05
2022-11-22T06:44:06.537Z,40.29
2022-11-22T06:46:34.524Z,39.43
2022-11-22T06:49:03.385Z,40.63
2022-11-22T06:51:33.323Z,40.31
2022-11-22T06:54:02.176Z,40.81
2022-11-22T06:56:31.731Z,40.46
2022-11-22T06:59:03.134Z,39.87
2022-11-22T07:01:32.225Z,39.44
2022-11-22T07:04:01.471Z,38.17
2022-11-22T07:06:31.218Z,36.40
2022-11-22T07:09:01.620Z,34.53
2022-11-22T07:11:31.296Z,32.61
2022-11-22T07:14:07.074Z,30.81
2022-11-22T07:16:37.683Z,29.71
2022-11-22T07:19:06.081Z,28.19
2022-11-22T07:21:34.319Z,27.17
2022-11-22T07:24:05.622Z,26.59
2022-11-22T07:26:34.046Z,26.24
2022-11-22T07:29:02.384Z,25.46
2022-11-22T07:31:30.633Z,25.45
2022-11-22T07:33:59.000Z,25.19
2022-11-22T07:36:29.643Z,24.63
2022-11-22T07:38:58.253Z,24.35
2022-11-22T07:41:27.760Z,23.33
2022-11-22T07:43:56.022Z,23.22
2022-11-22T07:46:26.455Z,23.19
2022-11-22T07:48:54.597Z,22.47
2022-11-22T07:51:22.951Z,21.59
2022-11-22T07:53:51.054Z,20.26
2022-11-22T07:56:19.841Z,20.17
2022-11-22T07:58:49.463Z,19.54
2022-11-22T08:01:19.299Z,19.02
2022-11-22T08:03:47.587Z,18.78
2022-11-22T08:06:16.816Z,18.33
2022-11-22T08:08:44.954Z,18.20
2022-11-22T08:11:13.820Z,18.24
2022-11-22T08:13:42.560Z,18.63
2022-11-22T08:16:14.013Z,18.13
2022-11-22T08:18:43.280Z,17.57
2022-11-22T08:21:14.505Z,18.02
2022-11-22T08:23:43.531Z,17.56
2022-11-22T08:26:13.417Z,17.67
2022-11-22T08:28:42.219Z,18.21
2022-11-22T08:31:13.936Z,18.67
2022-11-22T08:33:41.929Z,18.80
2022-11-22T08:36:10.563Z,20.02
2022-11-22T08:38:38.883Z,19.92
2022-11-22T08:41:07.757Z,19.83
2022-11-22T08:43:35.914Z,19.47
2022-11-22T08:46:04.762Z,19.36
2022-11-22T08:48:35.803Z,19.10
2022-11-22T08:51:04.780Z,18.83
2022-11-22T08:53:33.848Z,19.67
2022-11-22T08:56:03.074Z,19.79
2022-11-22T08:58:31.296Z,19.20
2022-11-22T09:01:05.427Z,17.76
2022-11-22T09:03:35.735Z,17.51
2022-11-22T09:09:08.603Z,17.83
2022-11-22T09:11:41.882Z,18.15
2022-11-22T09:14:10.235Z,18.04
2022-11-22T09:16:38.668Z,17.81
2022-11-22T09:19:08.206Z,17.15
2022-11-22T09:21:36.827Z,16.90
2022-11-22T09:24:05.394Z,17.28
2022-11-22T09:26:33.764Z,17.37
2022-11-22T09:29:01.846Z,17.26
2022-11-22T09:31:32.457Z,17.90
2022-11-22T09:34:00.975Z,18.27
2022-11-22T09:36:31.028Z,17.54
2022-11-22T09:38:59.675Z,17.03
2022-11-22T09:42:05.564Z,16.53
2022-11-22T09:44:43.343Z,16.96
2022-11-22T09:47:20.257Z,16.62
2022-11-22T09:49:54.696Z,16.00
2022-11-22T09:52:28.706Z,15.42
2022-11-22T09:54:58.710Z,14.62
2022-11-22T09:57:29.596Z,14.08
2022-11-22T10:00:05.163Z,13.90
2022-11-22T10:02:58.839Z,13.72
2022-11-22T10:05:27.882Z,13.36
2022-11-22T10:08:02.740Z,13.46
2022-11-22T10:10:35.778Z,14.06
2022-11-22T10:13:07.510Z,13.91
2022-11-22T10:15:42.960Z,13.55
2022-11-22T10:18:17.413Z,12.87
2022-11-22T10:20:48.812Z,12.80
2022-11-22T10:23:22.109Z,12.16
2022-11-22T10:25:56.135Z,11.86
2022-11-22T10:28:30.997Z,11.73
2022-11-22T10:31:03.690Z,12.32
2022-11-22T10:33:42.853Z,11.97
2022-11-22T10:36:25.426Z,11.47
2022-11-22T10:39:14.014Z,12.16
2022-11-22T10:41:48.200Z,12.32
2022-11-22T10:44:24.968Z,12.17
2022-11-22T10:46:58.599Z,13.01
2022-11-22T10:49:37.924Z,13.14
2022-11-22T10:52:13.732Z,13.00
2022-11-22T10:54:50.224Z,13.00
2022-11-22T10:57:24.408Z,12.81
2022-11-22T10:59:59.623Z,12.50
2022-11-22T11:03:00.797Z,12.76
2022-11-22T11:05:33.576Z,12.84
2022-11-22T11:08:22.158Z,12.96
2022-11-22T11:10:51.921Z,12.78
2022-11-22T11:13:23.442Z,12.29
2022-11-22T11:15:56.200Z,12.06
2022-11-22T11:18:28.807Z,12.12
2022-11-22T11:20:57.164Z,12.82
2022-11-22T11:23:25.409Z,13.48
2022-11-22T11:25:55.251Z,13.11
2022-11-22T11:28:25.848Z,13.14
2022-11-22T11:30:56.433Z,13.87
2022-11-22T11:33:30.035Z,15.13
2022-11-22T11:36:04.043Z,15.86
2022-11-22T11:38:34.672Z,15.09
2022-11-22T11:41:23.557Z,14.16
2022-11-22T11:43:52.717Z,13.96
2022-11-22T11:46:22.925Z,16.00
2022-11-22T11:48:51.865Z,17.39
2022-11-22T11:51:24.140Z,18.33
2022-11-22T11:54:01.756Z,18.60
2022-11-22T11:56:34.745Z,19.64
2022-11-22T11:59:08.368Z,20.43
2022-11-22T12:01:39.012Z,21.45
2022-11-22T12:04:08.419Z,21.65
2022-11-22T12:06:36.715Z,22.07
2022-11-22T12:09:29.041Z,21.86
2022-11-22T12:12:02.476Z,22.05
2022-11-22T12:14:55.469Z,22.48
2022-11-22T12:17:25.208Z,22.20
2022-11-22T12:20:00.199Z,22.52
2022-11-22T12:22:50.814Z,22.53
2022-11-22T12:25:34.739Z,22.76
2022-11-22T12:28:17.432Z,22.91
2022-11-22T12:30:46.702Z,23.11
2022-11-22T12:33:19.361Z,23.38
2022-11-22T12:35:48.685Z,24.35
2022-11-22T12:38:19.342Z,24.46
2022-11-22T12:40:49.613Z,24.28
2022-11-22T12:43:23.885Z,23.98
2022-11-22T12:45:54.035Z,24.32
2022-11-22T12:48:24.407Z,24.91
2022-11-22T12:50:54.726Z,24.75
2022-11-22T12:53:26.123Z,24.78
2022-11-22T12:55:59.716Z,24.11
2022-11-22T12:58:34.861Z,24.37
2022-11-22T13:01:10.111Z,23.98
2022-11-22T13:03:41.256Z,24.62
2022-11-22T13:06:10.314Z,24.36
2022-11-22T13:08:42.490Z,24.14
2022-11-22T13:11:16.387Z,23.87
2022-11-22T13:13:49.191Z,24.09
2022-11-22T13:16:18.283Z,24.33
2022-11-22T13:18:49.620Z,24.45
2022-11-22T13:21:24.066Z,24.28
2022-11-22T13:24:10.135Z,23.95
2022-11-22T13:26:44.325Z,24.42
2022-11-22T13:29:23.343Z,24.09
2022-11-22T13:32:06.059Z,24.40
2022-11-22T13:34:36.266Z,25.08
2022-11-22T13:37:09.735Z,24.71
2022-11-22T13:39:43.791Z,24.42
2022-11-22T13:42:15.365Z,24.35
2022-11-22T13:44:53.725Z,24.42
2022-11-22T13:47:39.649Z,25.08
2022-11-22T13:50:53.613Z,26.02
2022-11-22T13:53:25.839Z,26.92
2022-11-22T13:55:54.286Z,27.16
2022-11-22T13:58:55.198Z,25.68
2022-11-22T14:01:56.379Z,25.57
2022-11-22T14:04:36.513Z,25.71
2022-11-22T14:07:07.532Z,26.31
2022-11-22T14:09:39.432Z,26.23
2022-11-22T14:12:25.082Z,26.20
2022-11-22T14:15:11.086Z,26.85
2022-11-22T14:17:44.828Z,27.75
2022-11-22T14:20:29.141Z,26.90
2022-11-22T14:23:01.264Z,27.81
2022-11-22T14:25:48.710Z,27.76
2022-11-22T14:28:30.537Z,27.95
2022-11-22T14:30:58.998Z,27.79
2022-11-22T14:33:28.630Z,28.18
2022-11-22T14:36:17.737Z,27.90
2022-11-22T14:38:46.418Z,28.58
2022-11-22T14:41:43.518Z,28.55
2022-11-22T14:44:16.208Z,29.17
2022-11-22T14:46:55.774Z,29.55
2022-11-22T14:49:33.216Z,30.27
2022-11-22T14:52:03.174Z,30.37
2022-11-22T14:54:39.034Z,28.97
2022-11-22T14:57:08.448Z,30.08
2022-11-22T14:59:57.171Z,28.87
2022-11-22T15:03:03.631Z,29.87
2022-11-22T15:09:12.288Z,31.11
2022-11-22T15:09:23.220Z,30.82
2022-11-22T15:11:40.952Z,30.06
2022-11-22T15:14:25.805Z,29.93
2022-11-22T15:57:28.687Z,30.05
2022-11-22T15:59:58.632Z,31.05
2022-11-22T16:02:31.118Z,31.04
2022-11-22T16:06:04.368Z,30.93
2022-11-22T16:07:52.521Z,31.00
2022-11-22T16:10:22.348Z,30.93
2022-11-22T16:12:51.356Z,30.89
2022-11-22T16:15:25.564Z,30.43
2022-11-22T16:17:59.399Z,30.91
2022-11-22T16:20:33.894Z,30.62
2022-11-22T16:23:15.998Z,30.32
2022-11-22T16:25:45.643Z,30.92
2022-11-22T16:28:35.392Z,29.84
2022-11-22T16:31:07.604Z,30.05
2022-11-22T16:33:36.092Z,30.36
2022-11-22T16:36:07.061Z,30.71
2022-11-22T16:38:35.553Z,30.94
2022-11-22T16:41:03.729Z,30.87
2022-11-22T16:43:35.681Z,30.41
2022-11-22T16:46:05.183Z,30.67
2022-11-22T16:48:33.925Z,30.69
2022-11-22T16:51:07.045Z,30.59
2022-11-22T16:53:42.171Z,30.23
2022-11-22T16:56:16.589Z,30.35
2022-11-22T16:58:45.316Z,30.63
2022-11-22T17:01:16.253Z,30.66
2022-11-22T17:03:45.085Z,29.43
2022-11-22T17:06:18.745Z,30.30
2022-11-22T17:08:47.544Z,30.61
2022-11-22T17:11:17.313Z,30.50
2022-11-22T17:13:46.294Z,30.62
2022-11-22T17:16:17.818Z,30.48
2022-11-22T17:18:47.707Z,30.60
2022-11-22T17:21:19.290Z,30.13
2022-11-22T17:23:47.711Z,30.57
2022-11-22T17:26:15.878Z,30.02
2022-11-22T17:28:44.373Z,30.13
2022-11-22T17:31:13.856Z,30.06
2022-11-22T17:33:43.756Z,29.76
2022-11-22T17:36:21.361Z,29.87
2022-11-22T17:38:49.719Z,30.57
2022-11-22T17:41:17.987Z,30.64
2022-11-22T17:43:46.410Z,30.55
2022-11-22T17:46:15.203Z,30.79
2022-11-22T17:48:45.096Z,30.66
2022-11-22T17:51:14.243Z,30.76
2022-11-22T17:53:42.718Z,30.71
2022-11-22T17:56:11.634Z,30.39
2022-11-22T17:58:40.586Z,30.42
2022-11-22T18:01:10.709Z,30.34
2022-11-22T18:03:39.665Z,30.54
2022-11-22T18:06:10.436Z,30.43
2022-11-22T18:08:45.220Z,30.40
2022-11-22T18:11:15.267Z,30.85
2022-11-22T18:13:43.901Z,31.14
2022-11-22T18:16:14.536Z,31.50
2022-11-22T18:18:58.651Z,31.35
2022-11-22T18:21:30.220Z,31.07
2022-11-22T18:23:59.353Z,31.26
2022-11-22T18:26:43.139Z,30.88
2022-11-22T18:32:01.080Z,30.99
2022-11-22T18:34:30.750Z,31.55
2022-11-22T18:37:03.631Z,31.24
2022-11-22T18:39:35.283Z,31.19
2022-11-22T18:42:04.161Z,31.17
2022-11-22T18:44:32.596Z,31.17
2022-11-22T18:47:00.794Z,31.86
2022-11-22T18:49:29.795Z,31.56
2022-11-22T18:51:58.341Z,31.44
2022-11-22T18:54:28.144Z,31.75
2022-11-22T18:56:56.231Z,32.67
2022-11-22T18:59:24.649Z,32.81
2022-11-22T19:01:52.850Z,32.44
2022-11-22T19:04:21.241Z,32.63
2022-11-22T19:06:49.370Z,32.25
2022-11-22T19:09:17.661Z,32.43
2022-11-22T19:11:47.372Z,32.22
2022-11-22T19:14:15.728Z,32.88
2022-11-22T19:16:44.130Z,32.92
2022-11-22T19:19:13.182Z,32.99
2022-11-22T19:21:41.537Z,33.51
2022-11-22T19:24:10.060Z,33.40
2022-11-22T19:26:38.569Z,33.45
2022-11-22T19:29:08.859Z,33.48
2022-11-22T19:31:37.393Z,33.84
2022-11-22T19:34:05.884Z,33.61
2022-11-22T19:36:36.354Z,33.58
2022-11-22T19:39:05.607Z,33.11
2022-11-22T19:41:34.266Z,33.23
2022-11-22T19:44:03.188Z,33.01
2022-11-22T19:46:33.205Z,33.07
2022-11-22T19:49:02.503Z,33.00
2022-11-22T19:51:32.043Z,32.78
2022-11-22T19:54:02.301Z,32.71
2022-11-22T19:56:32.893Z,32.23
2022-11-22T19:59:02.759Z,32.21
2022-11-22T20:01:34.823Z,32.04
2022-11-22T20:04:07.726Z,32.42
2022-11-22T20:06:38.390Z,32.31
2022-11-22T20:09:09.285Z,32.64
2022-11-22T20:11:38.188Z,32.73
2022-11-22T20:14:06.628Z,32.82
2022-11-22T20:16:37.563Z,32.69
2022-11-22T20:19:07.077Z,32.83
2022-11-22T20:21:36.672Z,32.80
2022-11-22T20:24:06.267Z,33.37
2022-11-22T20:26:35.021Z,33.79
2022-11-22T20:29:05.089Z,33.27
2022-11-22T20:31:35.048Z,33.29
2022-11-22T20:34:04.775Z,33.26
2022-11-22T20:36:35.150Z,33.57
2022-11-22T20:39:08.589Z,33.54
2022-11-22T20:41:39.135Z,34.03
2022-11-22T20:44:07.589Z,34.50
2022-11-22T20:46:37.894Z,34.37
2022-11-22T20:49:07.994Z,34.04
2022-11-22T20:51:39.656Z,34.61
2022-11-22T20:54:08.130Z,34.47
2022-11-22T20:56:36.774Z,34.78
2022-11-22T20:59:05.090Z,34.61
2022-11-22T21:01:33.688Z,34.56
2022-11-22T21:04:02.060Z,35.07
2022-11-22T21:06:32.938Z,34.98
2022-11-22T21:09:01.130Z,35.10
2022-11-22T21:11:31.062Z,35.56
2022-11-22T21:13:59.593Z,34.91
2022-11-22T21:16:29.616Z,35.25
2022-11-22T21:18:59.467Z,35.45
2022-11-22T21:21:28.497Z,35.17
2022-11-22T21:24:00.940Z,34.87
2022-11-22T21:26:29.908Z,36.01
2022-11-22T21:28:59.483Z,36.29
2022-11-22T21:31:28.572Z,35.85
2022-11-22T21:33:56.797Z,36.53
2022-11-22T21:36:25.261Z,36.51
2022-11-22T21:38:53.327Z,36.31
2022-11-22T21:41:39.407Z,36.51
2022-11-22T21:44:08.966Z,36.04
2022-11-22T21:46:37.438Z,36.21
2022-11-22T21:49:05.585Z,36.06
2022-11-22T21:51:33.985Z,36.74
2022-11-22T21:54:03.131Z,36.30
2022-11-22T21:56:33.153Z,36.79
2022-11-22T21:59:01.379Z,37.46
2022-11-22T22:01:30.089Z,36.22
2022-11-22T22:03:58.342Z,36.85
2022-11-22T22:06:26.832Z,36.35
2022-11-22T22:08:55.198Z,36.79
2022-11-22T22:11:23.794Z,36.95
2022-11-22T22:13:55.306Z,37.27
2022-11-22T22:16:26.090Z,37.07
2022-11-22T22:18:54.614Z,36.34
2022-11-22T22:21:23.229Z,36.21
2022-11-22T22:23:51.415Z,36.74
2022-11-22T22:26:19.979Z,37.44
2022-11-22T22:28:48.186Z,37.16
2022-11-22T22:31:21.968Z,37.80
2022-11-22T22:33:51.500Z,37.68
2022-11-22T22:36:20.356Z,36.87
2022-11-22T22:38:48.740Z,36.52
2022-11-22T22:41:17.642Z,36.56
2022-11-22T22:43:48.723Z,36.68
2022-11-22T22:46:18.926Z,34.99
2022-11-22T22:48:48.017Z,36.19
2022-11-22T22:51:18.144Z,36.10
2022-11-22T22:53:47.035Z,36.10
2022-11-22T22:56:17.708Z,36.17
2022-11-22T22:58:46.095Z,36.46
2022-11-22T23:01:15.991Z,36.31
2022-11-22T23:03:48.523Z,36.01
2022-11-22T23:06:17.450Z,36.68
2022-11-22T23:08:47.251Z,36.99
2022-11-22T23:11:16.405Z,37.44
2022-11-22T23:13:44.930Z,37.36
2022-11-22T23:16:14.802Z,36.90
2022-11-22T23:18:45.907Z,37.37
2022-11-22T23:21:15.757Z,36.79
2022-11-22T23:23:44.000Z,37.25
2022-11-22T23:26:13.945Z,37.01
2022-11-22T23:28:42.270Z,36.76
2022-11-22T23:31:15.484Z,36.39
2022-11-22T23:33:45.768Z,37.33
2022-11-22T23:36:15.864Z,37.86
2022-11-22T23:38:44.442Z,37.75
2022-11-22T23:41:13.576Z,37.55
2022-11-22T23:43:42.545Z,37.48
2022-11-22T23:46:16.199Z,37.21
2022-11-22T23:48:46.399Z,37.43
2022-11-22T23:51:15.684Z,38.02
2022-11-22T23:53:43.855Z,37.98
2022-11-22T23:56:18.992Z,37.99
2022-11-22T23:58:49.967Z,38.04
